createdAt,value
2018-07-19T00:01:43.356Z,997.07
2018-07-19T00:02:43.363Z,997.08
2018-07-19T00:04:36.273Z,997.05
2018-07-19T00:05:36.265Z,997.07
2018-07-19T00:07:29.181Z,997.07
2018-07-19T00:08:29.179Z,997.05
2018-07-19T00:10:22.076Z,997.04
2018-07-19T00:11:22.085Z,997.06
2018-07-19T00:13:14.991Z,997.07
2018-07-19T00:14:14.990Z,997.06
2018-07-19T00:16:07.925Z,997.07
2018-07-19T00:17:07.894Z,997.08
2018-07-19T00:19:00.807Z,997.10
2018-07-19T00:20:00.807Z,997.09
2018-07-19T00:21:53.707Z,997.07
2018-07-19T00:22:53.707Z,997.05
2018-07-19T00:24:46.614Z,997.09
2018-07-19T00:25:46.616Z,997.07
2018-07-19T00:27:39.534Z,997.11
2018-07-19T00:28:39.519Z,997.11
2018-07-19T00:30:32.421Z,997.10
2018-07-19T00:31:32.423Z,997.08
2018-07-19T00:33:25.344Z,997.11
2018-07-19T00:34:25.333Z,997.07
2018-07-19T00:36:18.228Z,997.11
2018-07-19T00:37:18.240Z,997.10
2018-07-19T00:39:11.157Z,997.10
2018-07-19T00:40:11.144Z,997.10
2018-07-19T00:42:04.043Z,997.08
2018-07-19T00:43:04.051Z,997.11
2018-07-19T00:44:56.958Z,997.08
2018-07-19T00:45:56.961Z,997.10
2018-07-19T00:47:49.854Z,997.11
2018-07-19T00:48:49.861Z,997.08
2018-07-19T00:50:42.771Z,997.09
2018-07-19T00:51:42.769Z,997.11
2018-07-19T00:53:35.674Z,997.05
2018-07-19T00:54:35.678Z,997.07
2018-07-19T00:56:28.589Z,997.03
2018-07-19T00:57:28.587Z,997.03
2018-07-19T00:59:21.487Z,997.04
2018-07-19T01:00:21.490Z,997.02
2018-07-19T01:02:14.403Z,997.04
2018-07-19T01:03:14.397Z,997.07
2018-07-19T01:05:07.317Z,997.07
2018-07-19T01:06:07.319Z,997.09
2018-07-19T01:08:00.224Z,997.12
2018-07-19T01:09:00.223Z,997.10
2018-07-19T01:10:53.147Z,997.16
2018-07-19T01:11:53.133Z,997.15
2018-07-19T01:13:46.036Z,997.17
2018-07-19T01:14:46.040Z,997.14
2018-07-19T01:16:38.960Z,997.14
2018-07-19T01:17:38.950Z,997.09
2018-07-19T01:19:31.850Z,997.13
2018-07-19T01:20:31.856Z,997.13
2018-07-19T01:22:24.767Z,997.14
2018-07-19T01:23:24.759Z,997.15
2018-07-19T01:25:17.660Z,997.15
2018-07-19T01:26:17.667Z,997.16
2018-07-19T01:28:10.581Z,997.13
2018-07-19T01:29:10.582Z,997.12
2018-07-19T01:31:03.477Z,997.06
2018-07-19T01:32:03.484Z,997.08
2018-07-19T01:33:56.392Z,997.12
2018-07-19T01:34:56.387Z,997.12
2018-07-19T01:36:49.298Z,997.14
2018-07-19T01:37:49.298Z,997.15
2018-07-19T01:39:42.207Z,997.18
2018-07-19T01:40:42.203Z,997.17
2018-07-19T01:42:35.103Z,997.20
2018-07-19T01:43:35.108Z,997.19
2018-07-19T01:45:28.020Z,997.18
2018-07-19T01:46:28.014Z,997.18
2018-07-19T01:48:20.923Z,997.17
2018-07-19T01:49:20.924Z,997.19
2018-07-19T01:51:13.825Z,997.18
2018-07-19T01:52:13.830Z,997.18
2018-07-19T01:54:06.738Z,997.22
2018-07-19T01:55:06.741Z,997.24
2018-07-19T01:56:59.642Z,997.21
2018-07-19T01:57:59.643Z,997.20
2018-07-19T01:59:53.122Z,997.21
2018-07-19T02:00:52.742Z,997.24
2018-07-19T02:02:45.649Z,997.23
2018-07-19T02:03:45.658Z,997.22
2018-07-19T02:05:38.566Z,997.26
2018-07-19T02:06:38.560Z,997.27
2018-07-19T02:08:31.466Z,997.22
2018-07-19T02:09:31.472Z,997.23
2018-07-19T02:11:24.408Z,997.19
2018-07-19T02:12:24.376Z,997.19
2018-07-19T02:14:17.281Z,997.21
2018-07-19T02:15:17.285Z,997.20
2018-07-19T02:17:10.206Z,997.17
2018-07-19T02:18:10.194Z,997.21
2018-07-19T02:20:03.095Z,997.19
2018-07-19T02:21:03.101Z,997.19
2018-07-19T02:22:56.013Z,997.24
2018-07-19T02:23:56.010Z,997.19
2018-07-19T02:25:48.921Z,997.19
2018-07-19T02:26:48.917Z,997.20
2018-07-19T02:28:41.822Z,997.22
2018-07-19T02:29:41.823Z,997.18
2018-07-19T02:31:34.758Z,997.18
2018-07-19T02:32:34.733Z,997.14
2018-07-19T02:34:27.631Z,997.20
2018-07-19T02:35:27.634Z,997.19
2018-07-19T02:37:20.553Z,997.19
2018-07-19T02:38:20.552Z,997.16
2018-07-19T02:40:13.446Z,997.16
2018-07-19T02:41:13.460Z,997.19
2018-07-19T02:43:06.363Z,997.20
2018-07-19T02:44:06.368Z,997.17
2018-07-19T02:45:59.266Z,997.16
2018-07-19T02:46:59.278Z,997.17
2018-07-19T02:48:52.191Z,997.14
2018-07-19T02:49:52.177Z,997.11
2018-07-19T02:51:45.083Z,997.13
2018-07-19T02:52:45.087Z,997.14
2018-07-19T02:54:38.008Z,997.13
2018-07-19T02:55:38.001Z,997.15
2018-07-19T02:57:30.902Z,997.13
2018-07-19T02:58:30.905Z,997.12
2018-07-19T03:00:23.813Z,997.12
2018-07-19T03:01:23.813Z,997.13
2018-07-19T03:03:16.715Z,997.09
2018-07-19T03:04:16.716Z,997.08
2018-07-19T03:06:09.632Z,997.12
2018-07-19T03:07:09.627Z,997.09
2018-07-19T03:09:02.527Z,997.08
2018-07-19T03:10:02.526Z,997.07
2018-07-19T03:11:55.444Z,997.04
2018-07-19T03:12:55.437Z,997.05
2018-07-19T03:14:48.342Z,997.04
2018-07-19T03:15:48.348Z,997.00
2018-07-19T03:17:41.262Z,997.02
2018-07-19T03:18:41.257Z,997.07
2018-07-19T03:20:34.167Z,997.07
2018-07-19T03:21:34.163Z,997.09
2018-07-19T03:23:27.068Z,997.07
2018-07-19T03:24:27.070Z,997.07
2018-07-19T03:26:19.991Z,997.09
2018-07-19T03:27:19.978Z,997.05
2018-07-19T03:29:12.876Z,997.06
2018-07-19T03:30:12.885Z,997.07
2018-07-19T03:32:05.787Z,997.03
2018-07-19T03:33:05.785Z,997.06
2018-07-19T03:34:58.689Z,997.07
2018-07-19T03:35:58.692Z,997.09
2018-07-19T03:37:51.608Z,997.06
2018-07-19T03:38:51.607Z,997.08
2018-07-19T03:40:44.508Z,997.08
2018-07-19T03:41:44.508Z,997.03
2018-07-19T03:43:37.420Z,997.07
2018-07-19T03:44:37.421Z,997.09
2018-07-19T03:46:30.313Z,997.05
2018-07-19T03:47:30.325Z,997.05
2018-07-19T03:49:23.255Z,997.03
2018-07-19T03:50:23.250Z,997.01
2018-07-19T03:52:16.130Z,996.99
2018-07-19T03:53:16.129Z,996.98
2018-07-19T03:55:09.044Z,996.98
2018-07-19T03:56:09.040Z,997.00
2018-07-19T03:58:01.950Z,997.07
2018-07-19T03:59:01.951Z,997.06
2018-07-19T04:00:54.854Z,997.07
2018-07-19T04:01:54.866Z,997.04
2018-07-19T04:03:47.761Z,997.05
2018-07-19T04:04:47.790Z,997.09
2018-07-19T04:06:40.663Z,997.10
2018-07-19T04:07:40.678Z,997.09
2018-07-19T04:09:33.581Z,997.14
2018-07-19T04:10:33.574Z,997.13
2018-07-19T04:12:26.474Z,997.10
2018-07-19T04:13:26.483Z,997.14
2018-07-19T04:15:19.384Z,997.13
2018-07-19T04:16:19.376Z,997.11
2018-07-19T04:18:12.291Z,997.08
2018-07-19T04:19:12.296Z,997.08
2018-07-19T04:21:05.216Z,997.12
2018-07-19T04:22:05.213Z,997.14
2018-07-19T04:23:58.105Z,997.15
2018-07-19T04:24:58.133Z,997.14
2018-07-19T04:26:51.024Z,997.11
2018-07-19T04:27:51.015Z,997.11
2018-07-19T04:29:43.920Z,997.11
2018-07-19T04:30:43.926Z,997.11
2018-07-19T04:32:36.878Z,997.11
2018-07-19T04:33:36.876Z,997.13
2018-07-19T04:35:29.787Z,997.13
2018-07-19T04:36:29.785Z,997.18
2018-07-19T04:38:22.733Z,997.14
2018-07-19T04:39:22.691Z,997.14
2018-07-19T04:41:15.604Z,997.17
2018-07-19T04:42:15.599Z,997.20
2018-07-19T04:44:08.503Z,997.16
2018-07-19T04:45:08.505Z,997.16
2018-07-19T04:47:01.411Z,997.16
2018-07-19T04:48:01.413Z,997.17
2018-07-19T04:49:54.310Z,997.12
2018-07-19T04:50:54.314Z,997.14
2018-07-19T04:52:47.227Z,997.11
2018-07-19T04:53:47.221Z,997.12
2018-07-19T04:55:40.130Z,997.12
2018-07-19T04:56:40.131Z,997.12
2018-07-19T04:58:33.045Z,997.14
2018-07-19T04:59:33.035Z,997.13
2018-07-19T05:01:25.945Z,997.13
2018-07-19T05:02:25.946Z,997.17
2018-07-19T05:04:18.869Z,997.17
2018-07-19T05:05:18.855Z,997.14
2018-07-19T05:07:11.754Z,997.20
2018-07-19T05:08:11.758Z,997.24
2018-07-19T05:10:04.669Z,997.26
2018-07-19T05:11:04.670Z,997.26
2018-07-19T05:12:57.588Z,997.28
2018-07-19T05:13:57.596Z,997.28
2018-07-19T05:14:57.585Z,997.25
2018-07-19T05:15:57.593Z,997.26
2018-07-19T05:16:57.598Z,997.25
2018-07-19T05:17:57.607Z,997.25
2018-07-19T05:18:57.613Z,997.24
2018-07-19T05:19:57.622Z,997.23
2018-07-19T05:20:57.630Z,997.21
2018-07-19T05:21:57.642Z,997.21
2018-07-19T05:22:57.647Z,997.28
2018-07-19T05:23:57.658Z,997.24
2018-07-19T05:24:57.666Z,997.26
2018-07-19T05:25:57.675Z,997.28
2018-07-19T05:26:57.677Z,997.28
2018-07-19T05:27:57.691Z,997.25
2018-07-19T05:28:57.697Z,997.25
2018-07-19T05:29:57.704Z,997.24
2018-07-19T05:30:57.711Z,997.24
2018-07-19T05:31:57.725Z,997.24
2018-07-19T05:32:57.731Z,997.25
2018-07-19T05:33:57.738Z,997.26
2018-07-19T05:34:57.745Z,997.25
2018-07-19T05:35:57.760Z,997.27
2018-07-19T05:36:57.766Z,997.29
2018-07-19T05:37:57.774Z,997.30
2018-07-19T05:38:57.778Z,997.29
2018-07-19T05:39:57.791Z,997.29
2018-07-19T05:40:57.798Z,997.28
2018-07-19T05:41:57.842Z,997.26
2018-07-19T05:42:57.816Z,997.24
2018-07-19T05:43:57.819Z,997.25
2018-07-19T05:44:57.831Z,997.26
2018-07-19T05:45:57.836Z,997.23
2018-07-19T05:46:57.858Z,997.28
2018-07-19T05:47:57.859Z,997.28
2018-07-19T05:48:57.866Z,997.26
2018-07-19T05:49:57.871Z,997.24
2018-07-19T05:50:57.884Z,997.27
2018-07-19T05:51:57.891Z,997.24
2018-07-19T05:52:57.895Z,997.21
2018-07-19T05:53:57.909Z,997.26
2018-07-19T05:54:57.915Z,997.21
2018-07-19T05:55:57.923Z,997.22
2018-07-19T05:56:57.933Z,997.21
2018-07-19T05:57:57.941Z,997.20
2018-07-19T05:58:57.950Z,997.28
2018-07-19T05:59:57.955Z,997.24
2018-07-19T06:00:57.966Z,997.27
2018-07-19T06:01:57.979Z,997.27
2018-07-19T06:02:57.987Z,997.28
2018-07-19T06:03:57.990Z,997.29
2018-07-19T06:04:58.005Z,997.29
2018-07-19T06:05:58.009Z,997.26
2018-07-19T06:06:58.022Z,997.26
2018-07-19T06:07:58.026Z,997.30
2018-07-19T06:08:58.036Z,997.26
2018-07-19T06:09:58.048Z,997.27
2018-07-19T06:10:58.052Z,997.31
2018-07-19T06:11:58.061Z,997.31
2018-07-19T06:12:58.071Z,997.29
2018-07-19T06:13:58.079Z,997.33
2018-07-19T06:14:58.090Z,997.37
2018-07-19T06:15:58.115Z,997.38
2018-07-19T06:16:58.102Z,997.33
2018-07-19T06:17:58.118Z,997.37
2018-07-19T06:18:58.121Z,997.37
2018-07-19T06:19:58.145Z,997.40
2018-07-19T06:20:58.140Z,997.40
2018-07-19T06:21:58.153Z,997.41
2018-07-19T06:22:58.157Z,997.44
2018-07-19T06:23:58.179Z,997.41
2018-07-19T06:24:58.173Z,997.45
2018-07-19T06:25:58.184Z,997.43
2018-07-19T06:26:58.193Z,997.42
2018-07-19T06:27:58.204Z,997.41
2018-07-19T06:28:58.211Z,997.44
2018-07-19T06:29:58.219Z,997.45
2018-07-19T06:30:58.226Z,997.40
2018-07-19T06:31:58.236Z,997.44
2018-07-19T06:32:58.245Z,997.44
2018-07-19T06:33:58.255Z,997.43
2018-07-19T06:34:58.266Z,997.40
2018-07-19T06:35:58.274Z,997.42
2018-07-19T06:36:58.276Z,997.40
2018-07-19T06:37:58.290Z,997.42
2018-07-19T06:38:58.296Z,997.41
2018-07-19T06:39:58.301Z,997.44
2018-07-19T06:40:58.316Z,997.43
2018-07-19T06:41:58.321Z,997.44
2018-07-19T06:42:58.389Z,997.41
2018-07-19T06:43:58.341Z,997.46
2018-07-19T06:44:58.348Z,997.44
2018-07-19T06:45:58.360Z,997.45
2018-07-19T06:46:58.367Z,997.45
2018-07-19T06:47:58.368Z,997.47
2018-07-19T06:48:58.378Z,997.49
2018-07-19T06:49:58.390Z,997.49
2018-07-19T06:50:58.396Z,997.50
2018-07-19T06:51:58.409Z,997.48
2018-07-19T06:52:58.412Z,997.48
2018-07-19T06:53:58.424Z,997.47
2018-07-19T06:54:58.432Z,997.44
2018-07-19T06:55:58.439Z,997.46
2018-07-19T06:56:58.446Z,997.47
2018-07-19T06:57:58.458Z,997.48
2018-07-19T06:58:58.462Z,997.49
2018-07-19T06:59:58.469Z,997.51
2018-07-19T07:00:58.485Z,997.50
2018-07-19T07:01:58.492Z,997.50
2018-07-19T07:02:58.502Z,997.49
2018-07-19T07:03:58.507Z,997.50
2018-07-19T07:04:58.517Z,997.48
2018-07-19T07:05:58.524Z,997.49
2018-07-19T07:06:58.525Z,997.49
2018-07-19T07:07:58.536Z,997.50
2018-07-19T07:08:58.580Z,997.49
2018-07-19T07:09:58.557Z,997.49
2018-07-19T07:10:58.573Z,997.46
2018-07-19T07:11:58.579Z,997.49
2018-07-19T07:12:58.579Z,997.50
2018-07-19T07:13:58.583Z,997.50
2018-07-19T07:14:58.636Z,997.50
2018-07-19T07:15:58.602Z,997.49
2018-07-19T07:16:58.610Z,997.51
2018-07-19T07:17:58.624Z,997.53
2018-07-19T07:18:58.636Z,997.52
2018-07-19T07:19:58.630Z,997.55
2018-07-19T07:20:58.646Z,997.61
2018-07-19T07:21:58.649Z,997.57
2018-07-19T07:22:58.699Z,997.58
2018-07-19T07:23:58.667Z,997.53
2018-07-19T07:24:58.680Z,997.57
2018-07-19T07:25:58.681Z,997.57
2018-07-19T07:26:58.699Z,997.56
2018-07-19T07:27:58.701Z,997.59
2018-07-19T07:28:58.714Z,997.56
2018-07-19T07:29:58.716Z,997.57
2018-07-19T07:30:58.726Z,997.56
2018-07-19T07:31:58.734Z,997.55
2018-07-19T07:32:58.749Z,997.60
2018-07-19T07:33:58.752Z,997.61
2018-07-19T07:34:58.761Z,997.62
2018-07-19T07:35:58.762Z,997.62
2018-07-19T07:36:58.777Z,997.62
2018-07-19T07:37:58.784Z,997.59
2018-07-19T07:38:58.859Z,997.63
2018-07-19T07:39:58.799Z,997.60
2018-07-19T07:40:58.803Z,997.64
2018-07-19T07:41:58.813Z,997.64
2018-07-19T07:43:58.853Z,997.64
2018-07-19T07:44:58.837Z,997.65
2018-07-19T07:45:58.846Z,997.66
2018-07-19T07:46:58.855Z,997.67
2018-07-19T07:47:58.869Z,997.71
2018-07-19T07:48:58.872Z,997.69
2018-07-19T07:49:58.880Z,997.72
2018-07-19T07:50:58.889Z,997.71
2018-07-19T07:51:58.896Z,997.72
2018-07-19T07:52:58.907Z,997.73
2018-07-19T07:53:58.912Z,997.75
2018-07-19T07:54:58.921Z,997.73
2018-07-19T07:55:58.930Z,997.72
2018-07-19T07:56:58.948Z,997.73
2018-07-19T07:57:58.949Z,997.71
2018-07-19T07:58:58.955Z,997.72
2018-07-19T07:59:58.964Z,997.70
2018-07-19T08:00:58.969Z,997.71
2018-07-19T08:01:58.976Z,997.72
2018-07-19T08:02:58.994Z,997.72
2018-07-19T08:03:58.995Z,997.74
2018-07-19T08:04:59.001Z,997.74
2018-07-19T08:05:59.010Z,997.75
2018-07-19T08:06:59.019Z,997.75
2018-07-19T08:07:59.031Z,997.72
2018-07-19T08:08:59.038Z,997.74
2018-07-19T08:09:59.042Z,997.75
2018-07-19T08:10:59.053Z,997.76
2018-07-19T08:11:59.059Z,997.78
2018-07-19T08:12:59.074Z,997.75
2018-07-19T08:13:59.079Z,997.78
2018-07-19T08:14:59.084Z,997.76
2018-07-19T08:15:59.094Z,997.81
2018-07-19T08:16:59.098Z,997.81
2018-07-19T08:17:59.110Z,997.82
2018-07-19T08:18:59.118Z,997.79
2018-07-19T08:19:59.131Z,997.77
2018-07-19T08:20:59.138Z,997.76
2018-07-19T08:21:59.147Z,997.77
2018-07-19T08:22:59.154Z,997.74
2018-07-19T08:23:59.157Z,997.77
2018-07-19T08:24:59.173Z,997.77
2018-07-19T08:25:59.178Z,997.77
2018-07-19T08:26:59.185Z,997.81
2018-07-19T08:27:59.197Z,997.82
2018-07-19T08:28:59.254Z,997.81
2018-07-19T08:29:59.214Z,997.75
2018-07-19T08:30:59.220Z,997.79
2018-07-19T08:31:59.226Z,997.78
2018-07-19T08:32:59.244Z,997.74
2018-07-19T08:33:59.248Z,997.70
2018-07-19T08:34:59.250Z,997.74
2018-07-19T08:35:59.328Z,997.70
2018-07-19T08:36:59.267Z,997.66
2018-07-19T08:37:59.278Z,997.71
2018-07-19T08:38:59.290Z,997.69
2018-07-19T08:39:59.293Z,997.69
2018-07-19T08:40:59.307Z,997.68
2018-07-19T08:41:59.315Z,997.71
2018-07-19T08:42:59.327Z,997.67
2018-07-19T08:43:59.329Z,997.72
2018-07-19T08:44:59.333Z,997.71
2018-07-19T08:45:59.344Z,997.70
2018-07-19T08:46:59.355Z,997.71
2018-07-19T08:47:59.360Z,997.69
2018-07-19T08:48:59.371Z,997.69
2018-07-19T08:49:59.383Z,997.68
2018-07-19T08:50:59.385Z,997.65
2018-07-19T08:51:59.393Z,997.64
2018-07-19T08:52:59.407Z,997.66
2018-07-19T08:53:59.413Z,997.67
2018-07-19T08:54:59.420Z,997.64
2018-07-19T08:56:20.443Z,997.63
2018-07-19T08:56:59.443Z,997.64
2018-07-19T08:57:59.448Z,997.61
2018-07-19T08:58:59.458Z,997.59
2018-07-19T08:59:59.470Z,997.62
2018-07-19T09:00:59.470Z,997.61
2018-07-19T09:01:59.487Z,997.60
2018-07-19T09:02:59.491Z,997.58
2018-07-19T09:03:59.503Z,997.55
2018-07-19T09:04:59.511Z,997.54
2018-07-19T09:05:59.523Z,997.54
2018-07-19T09:06:59.533Z,997.57
2018-07-19T09:07:59.534Z,997.54
2018-07-19T09:08:59.548Z,997.59
2018-07-19T09:09:59.556Z,997.59
2018-07-19T09:10:59.558Z,997.55
2018-07-19T09:11:59.570Z,997.56
2018-07-19T09:12:59.625Z,997.56
2018-07-19T09:13:59.624Z,997.51
2018-07-19T09:14:59.591Z,997.51
2018-07-19T09:15:59.605Z,997.53
2018-07-19T09:16:59.619Z,997.48
2018-07-19T09:17:59.625Z,997.51
2018-07-19T09:18:59.632Z,997.46
2018-07-19T09:19:59.647Z,997.50
2018-07-19T09:20:59.667Z,997.47
2018-07-19T09:21:59.657Z,997.52
2018-07-19T09:22:59.666Z,997.50
2018-07-19T09:23:59.675Z,997.49
2018-07-19T09:24:59.690Z,997.47
2018-07-19T09:25:59.691Z,997.49
2018-07-19T09:26:59.707Z,997.47
2018-07-19T09:27:59.709Z,997.47
2018-07-19T09:28:59.721Z,997.50
2018-07-19T09:29:59.730Z,997.42
2018-07-19T09:30:59.740Z,997.43
2018-07-19T09:31:59.751Z,997.46
2018-07-19T09:32:59.758Z,997.40
2018-07-19T09:33:59.768Z,997.43
2018-07-19T09:34:59.778Z,997.43
2018-07-19T09:35:59.782Z,997.40
2018-07-19T09:36:59.793Z,997.39
2018-07-19T09:37:59.800Z,997.40
2018-07-19T09:38:59.816Z,997.40
2018-07-19T09:39:59.817Z,997.38
2018-07-19T09:40:59.841Z,997.37
2018-07-19T09:41:59.839Z,997.41
2018-07-19T09:42:59.847Z,997.34
2018-07-19T09:43:59.854Z,997.32
2018-07-19T09:44:59.867Z,997.29
2018-07-19T09:45:59.893Z,997.32
2018-07-19T09:46:59.886Z,997.35
2018-07-19T09:47:59.896Z,997.33
2018-07-19T09:48:59.905Z,997.35
2018-07-19T09:49:59.915Z,997.39
2018-07-19T09:50:59.922Z,997.34
2018-07-19T09:51:59.931Z,997.35
2018-07-19T09:52:59.941Z,997.33
2018-07-19T09:53:59.952Z,997.31
2018-07-19T09:54:59.966Z,997.31
2018-07-19T09:55:59.974Z,997.32
2018-07-19T09:56:59.979Z,997.30
2018-07-19T09:57:59.990Z,997.31
2018-07-19T09:58:59.994Z,997.28
2018-07-19T10:00:00.009Z,997.33
2018-07-19T10:01:00.017Z,997.23
2018-07-19T10:02:00.023Z,997.26
2018-07-19T10:03:00.036Z,997.30
2018-07-19T10:04:00.041Z,997.23
2018-07-19T10:05:00.050Z,997.20
2018-07-19T10:06:00.068Z,997.26
2018-07-19T10:07:00.073Z,997.21
2018-07-19T10:08:00.082Z,997.22
2018-07-19T10:09:00.090Z,997.24
2018-07-19T10:10:00.158Z,997.24
2018-07-19T10:11:00.112Z,997.24
2018-07-19T10:12:00.140Z,997.22
2018-07-19T10:13:00.128Z,997.25
2018-07-19T10:14:00.135Z,997.23
2018-07-19T10:15:00.193Z,997.23
2018-07-19T10:16:00.159Z,997.21
2018-07-19T10:17:00.167Z,997.20
2018-07-19T10:18:00.178Z,997.24
2018-07-19T10:19:00.188Z,997.17
2018-07-19T10:20:00.192Z,997.23
2018-07-19T10:21:00.204Z,997.25
2018-07-19T10:22:00.215Z,997.23
2018-07-19T10:23:00.226Z,997.16
2018-07-19T10:24:00.232Z,997.19
2018-07-19T10:25:00.241Z,997.18
2018-07-19T10:26:00.258Z,997.16
2018-07-19T10:27:00.261Z,997.13
2018-07-19T10:28:00.275Z,997.16
2018-07-19T10:29:00.282Z,997.12
2018-07-19T10:30:00.292Z,997.11
2018-07-19T10:31:00.301Z,997.05
2018-07-19T10:32:00.379Z,997.06
2018-07-19T10:33:00.315Z,997.06
2018-07-19T10:34:00.340Z,997.05
2018-07-19T10:35:00.337Z,997.10
2018-07-19T10:36:00.351Z,997.14
2018-07-19T10:37:00.357Z,997.08
2018-07-19T10:38:00.367Z,997.11
2018-07-19T10:39:00.374Z,997.10
2018-07-19T10:40:00.383Z,997.10
2018-07-19T10:41:00.400Z,997.10
2018-07-19T10:42:00.407Z,997.12
2018-07-19T10:43:00.429Z,997.15
2018-07-19T10:44:00.427Z,997.09
2018-07-19T10:45:00.444Z,997.10
2018-07-19T10:46:00.489Z,997.03
2018-07-19T10:47:00.453Z,997.05
2018-07-19T10:48:00.460Z,997.06
2018-07-19T10:49:00.473Z,997.02
2018-07-19T10:50:00.487Z,997.00
2018-07-19T10:51:00.490Z,997.00
2018-07-19T10:52:00.552Z,997.04
2018-07-19T10:53:00.518Z,996.99
2018-07-19T10:54:00.523Z,997.02
2018-07-19T10:55:00.531Z,997.02
2018-07-19T10:56:00.540Z,997.05
2018-07-19T10:57:00.552Z,997.02
2018-07-19T10:58:00.558Z,997.08
2018-07-19T10:59:00.573Z,997.07
2018-07-19T11:00:00.576Z,997.04
2018-07-19T11:01:00.591Z,997.03
2018-07-19T11:02:00.601Z,996.99
2018-07-19T11:03:00.611Z,997.03
2018-07-19T11:04:00.616Z,997.01
2018-07-19T11:05:00.654Z,996.98
2018-07-19T11:06:00.637Z,996.99
2018-07-19T11:07:00.645Z,996.93
2018-07-19T11:08:00.654Z,996.94
2018-07-19T11:09:00.666Z,996.93
2018-07-19T11:10:00.683Z,996.95
2018-07-19T11:11:00.685Z,996.95
2018-07-19T11:12:00.695Z,996.90
2018-07-19T11:13:00.704Z,996.91
2018-07-19T11:14:00.713Z,996.88
2018-07-19T11:15:00.720Z,996.90
2018-07-19T11:16:00.739Z,996.91
2018-07-19T11:17:00.746Z,996.90
2018-07-19T11:18:00.753Z,996.91
2018-07-19T11:19:00.765Z,996.91
2018-07-19T11:20:00.775Z,996.89
2018-07-19T11:21:00.779Z,996.89
2018-07-19T11:22:00.793Z,996.92
2018-07-19T11:23:00.806Z,996.91
2018-07-19T11:24:00.816Z,996.94
2018-07-19T11:25:00.829Z,996.95
2018-07-19T11:26:00.836Z,996.90
2018-07-19T11:27:00.840Z,996.84
2018-07-19T11:28:00.847Z,996.89
2018-07-19T11:29:00.864Z,996.89
2018-07-19T11:30:00.869Z,996.90
2018-07-19T11:31:00.882Z,996.89
2018-07-19T11:32:00.886Z,996.86
2018-07-19T11:33:00.922Z,996.85
2018-07-19T11:34:00.913Z,996.84
2018-07-19T11:35:00.921Z,996.84
2018-07-19T11:36:00.928Z,996.79
2018-07-19T11:37:00.941Z,996.84
2018-07-19T11:38:00.959Z,996.80
2018-07-19T11:39:00.959Z,996.81
2018-07-19T11:40:00.965Z,996.81
2018-07-19T11:41:00.980Z,996.77
2018-07-19T11:42:00.988Z,996.76
2018-07-19T11:43:00.997Z,996.79
2018-07-19T11:44:01.012Z,996.76
2018-07-19T11:45:01.017Z,996.77
2018-07-19T11:46:01.034Z,996.73
2018-07-19T11:47:01.039Z,996.74
2018-07-19T11:48:01.055Z,996.72
2018-07-19T11:49:01.060Z,996.71
2018-07-19T11:50:01.104Z,996.72
2018-07-19T11:51:01.080Z,996.67
2018-07-19T11:52:01.096Z,996.69
2018-07-19T11:53:01.099Z,996.67
2018-07-19T11:54:01.109Z,996.69
2018-07-19T11:55:01.125Z,996.68
2018-07-19T11:56:01.130Z,996.63
2018-07-19T11:57:01.138Z,996.62
2018-07-19T11:58:01.148Z,996.62
2018-07-19T11:59:01.161Z,996.63
2018-07-19T12:00:01.163Z,996.64
2018-07-19T12:01:01.176Z,996.60
2018-07-19T12:02:01.190Z,996.65
2018-07-19T12:03:01.196Z,996.61
2018-07-19T12:04:01.207Z,996.62
2018-07-19T12:05:01.215Z,996.62
2018-07-19T12:06:01.224Z,996.59
2018-07-19T12:07:01.236Z,996.61
2018-07-19T12:08:01.244Z,996.57
2018-07-19T12:09:01.258Z,996.59
2018-07-19T12:10:01.260Z,996.58
2018-07-19T12:11:01.273Z,996.59
2018-07-19T12:12:01.284Z,996.56
2018-07-19T12:13:01.291Z,996.53
2018-07-19T12:14:01.305Z,996.53
2018-07-19T12:15:01.310Z,996.55
2018-07-19T12:16:01.321Z,996.53
2018-07-19T12:17:01.330Z,996.55
2018-07-19T12:18:01.360Z,996.49
2018-07-19T12:19:01.350Z,996.50
2018-07-19T12:20:01.360Z,996.56
2018-07-19T12:21:01.380Z,996.54
2018-07-19T12:22:01.380Z,996.56
2018-07-19T12:23:01.386Z,996.57
2018-07-19T12:24:01.404Z,996.47
2018-07-19T12:25:01.410Z,996.52
2018-07-19T12:26:01.420Z,996.52
2018-07-19T12:27:01.424Z,996.48
2018-07-19T12:28:01.435Z,996.52
2018-07-19T12:29:01.445Z,996.51
2018-07-19T12:30:01.456Z,996.49
2018-07-19T12:31:01.466Z,996.48
2018-07-19T12:32:01.477Z,996.49
2018-07-19T12:33:01.481Z,996.43
2018-07-19T12:34:01.493Z,996.47
2018-07-19T12:35:01.503Z,996.48
2018-07-19T12:36:01.518Z,996.47
2018-07-19T12:37:01.523Z,996.45
2018-07-19T12:38:01.615Z,996.47
2018-07-19T12:39:01.547Z,996.44
2018-07-19T12:40:01.554Z,996.44
2018-07-19T12:41:01.562Z,996.43
2018-07-19T12:42:01.581Z,996.40
2018-07-19T12:43:01.581Z,996.43
2018-07-19T12:44:01.588Z,996.40
2018-07-19T12:45:01.601Z,996.41
2018-07-19T12:46:01.610Z,996.38
2018-07-19T12:47:01.617Z,996.38
2018-07-19T12:48:01.628Z,996.38
2018-07-19T12:49:01.679Z,996.39
2018-07-19T12:50:01.649Z,996.36
2018-07-19T12:51:01.655Z,996.37
2018-07-19T12:52:01.702Z,996.38
2018-07-19T12:53:01.675Z,996.38
2018-07-19T12:54:01.686Z,996.35
2018-07-19T12:55:01.701Z,996.36
2018-07-19T12:56:01.705Z,996.37
2018-07-19T12:57:01.773Z,996.37
2018-07-19T12:58:01.732Z,996.40
2018-07-19T12:59:01.739Z,996.42
2018-07-19T13:00:01.748Z,996.34
2018-07-19T13:01:01.760Z,996.36
2018-07-19T13:02:01.765Z,996.36
2018-07-19T13:03:01.776Z,996.37
2018-07-19T13:04:01.785Z,996.36
2018-07-19T13:05:01.801Z,996.35
2018-07-19T13:06:01.809Z,996.40
2018-07-19T13:07:01.813Z,996.34
2018-07-19T13:08:01.827Z,996.39
2018-07-19T13:09:01.837Z,996.43
2018-07-19T13:10:01.847Z,996.40
2018-07-19T13:11:01.857Z,996.44
2018-07-19T13:12:01.860Z,996.37
2018-07-19T13:13:01.876Z,996.42
2018-07-19T13:14:01.884Z,996.40
2018-07-19T13:15:01.898Z,996.43
2018-07-19T13:16:01.907Z,996.42
2018-07-19T13:17:01.913Z,996.39
2018-07-19T13:18:01.927Z,996.40
2018-07-19T13:19:01.936Z,996.37
2018-07-19T13:20:01.943Z,996.34
2018-07-19T13:21:01.950Z,996.35
2018-07-19T13:22:02.001Z,996.33
2018-07-19T13:23:01.980Z,996.34
2018-07-19T13:24:01.990Z,996.33
2018-07-19T13:25:01.992Z,996.29
2018-07-19T13:26:01.997Z,996.31
2018-07-19T13:27:02.010Z,996.30
2018-07-19T13:28:02.041Z,996.31
2018-07-19T13:29:02.033Z,996.31
2018-07-19T13:30:02.040Z,996.28
2018-07-19T13:31:02.101Z,996.30
2018-07-19T13:32:02.062Z,996.28
2018-07-19T13:33:02.071Z,996.26
2018-07-19T13:34:02.078Z,996.28
2018-07-19T13:35:02.090Z,996.27
2018-07-19T13:36:02.098Z,996.27
2018-07-19T13:37:02.109Z,996.24
2018-07-19T13:38:02.134Z,996.24
2018-07-19T13:39:02.127Z,996.24
2018-07-19T13:40:02.140Z,996.22
2018-07-19T13:41:02.148Z,996.24
2018-07-19T13:42:02.154Z,996.22
2018-07-19T13:43:02.167Z,996.26
2018-07-19T13:44:02.174Z,996.22
2018-07-19T13:45:02.186Z,996.22
2018-07-19T13:46:02.200Z,996.21
2018-07-19T13:47:02.206Z,996.20
2018-07-19T13:48:02.224Z,996.21
2018-07-19T13:49:02.230Z,996.21
2018-07-19T13:50:02.233Z,996.20
2018-07-19T13:51:02.239Z,996.20
2018-07-19T13:52:02.251Z,996.22
2018-07-19T13:53:02.263Z,996.18
2018-07-19T13:54:02.278Z,996.17
2018-07-19T13:55:02.283Z,996.18
2018-07-19T13:56:02.339Z,996.17
2018-07-19T13:57:02.301Z,996.20
2018-07-19T13:58:02.316Z,996.19
2018-07-19T13:59:02.327Z,996.20
2018-07-19T14:00:02.373Z,996.18
2018-07-19T14:01:02.342Z,996.15
2018-07-19T14:02:02.353Z,996.19
2018-07-19T14:03:02.363Z,996.17
2018-07-19T14:04:02.409Z,996.11
2018-07-19T14:05:02.386Z,996.16
2018-07-19T14:06:02.392Z,996.14